Time;durP1;ratioP1;P1;durP2;ratioP2;P2;SDS_P1;SDS_P2;PMS_P1;PMS_P2;Temp;Humidity;BMP_temperature;BMP_pressure;BME280_temperature;BME280_humidity;BME280_pressure;Samples;Min_cycle;Max_cycle;Signal;HPM_P1;HPM_P2
2020/12/25 00:00:47;;;;;;;;;;;3.10;99.90;;;;;;5139030;27;19911;-88
2020/12/25 00:03:16;;;;;;;;;;;3.00;99.90;;;;;;5157153;27;19962;-87
2020/12/25 00:05:53;;;;;;;;;;;3.00;99.90;;;;;;5139117;27;19907;-88
2020/12/25 00:08:21;;;;;;;;;;;2.90;99.90;;;;;;5138729;27;19907;-88
2020/12/25 00:10:51;;;;;;;;;;;2.90;99.90;;;;;;5132782;27;19907;-88
2020/12/25 00:13:23;;;;;;;;;;;2.80;99.90;;;;;;5130113;27;19953;-88
2020/12/25 00:15:54;;;;;;;;;;;2.70;99.90;;;;;;5138824;27;19923;-87
2020/12/25 00:18:23;;;;;;;;;;;2.70;99.90;;;;;;5135738;27;19911;-88
2020/12/25 00:20:54;;;;;;;;;;;2.60;99.90;;;;;;5131335;27;19911;-88
2020/12/25 00:23:40;;;;;;;;;;;2.60;99.90;;;;;;5137915;27;20454;-88
2020/12/25 00:26:22;;;;;;;;;;;2.50;99.90;;;;;;5136530;27;19954;-87
2020/12/25 00:28:51;;;;;;;;;;;2.40;99.90;;;;;;5138715;27;19907;-88
2020/12/25 00:31:25;;;;;;;;;;;2.30;99.90;;;;;;5131788;27;19914;-88
2020/12/25 00:33:54;;;;;;;;;;;2.30;99.90;;;;;;5138154;27;19957;-89
2020/12/25 00:36:26;;;;;;;;;;;2.30;99.90;;;;;;5138582;27;19930;-88
2020/12/25 00:39:07;;;;;;;;;;;2.30;99.90;;;;;;5156951;27;19990;-88
2020/12/25 00:41:36;;;;;;;;;;;2.30;99.90;;;;;;5138815;27;20328;-88
2020/12/25 00:44:08;;;;;;;;;;;2.20;99.90;;;;;;5138801;27;19917;-87
2020/12/25 00:46:42;;;;;;;;;;;2.30;99.90;;;;;;5138223;27;19907;-87
2020/12/25 00:49:16;;;;;;;;;;;2.30;99.90;;;;;;5133928;27;20363;-88
2020/12/25 00:51:49;;;;;;;;;;;2.20;99.90;;;;;;5134850;27;19907;-87
2020/12/25 00:54:35;;;;;;;;;;;2.20;99.90;;;;;;5134501;27;19972;-88
2020/12/25 00:57:01;;;;;;;;;;;2.20;99.90;;;;;;5152378;27;19929;-88
2020/12/25 00:59:39;;;;;;;;;;;2.20;99.90;;;;;;5138027;27;19998;-88
2020/12/25 01:02:05;;;;;;;;;;;2.20;99.90;;;;;;5138459;27;20017;-87
2020/12/25 01:04:33;;;;;;;;;;;2.20;99.90;;;;;;5138390;27;19915;-88
2020/12/25 01:07:09;;;;;;;;;;;2.20;99.90;;;;;;5055677;28;20381;-88
2020/12/25 01:09:50;;;;;;;;;;;2.20;99.90;;;;;;5069996;28;19908;-88
2020/12/25 01:12:25;;;;;;;;;;;2.10;99.90;;;;;;5066806;28;19909;-88
2020/12/25 01:14:53;;;;;;;;;;;2.10;99.90;;;;;;5070190;28;20416;-88
2020/12/25 01:17:23;;;;;;;;;;;2.10;99.90;;;;;;5009133;28;19940;-88
2020/12/25 01:19:51;;;;;;;;;;;2.00;99.90;;;;;;5007454;28;19936;-89
2020/12/25 01:22:21;;;;;;;;;;;2.00;99.90;;;;;;5005013;28;20395;-88
2020/12/25 01:24:49;;;;;;;;;;;2.00;99.90;;;;;;5010330;28;19909;-88
2020/12/25 01:27:22;;;;;;;;;;;2.00;99.90;;;;;;4952824;29;19910;-88
2020/12/25 01:29:51;;;;;;;;;;;2.10;99.90;;;;;;4938050;29;20508;-89
2020/12/25 01:32:28;;;;;;;;;;;2.00;99.90;;;;;;4951379;28;19971;-87
2020/12/25 01:35:02;;;;;;;;;;;2.10;99.90;;;;;;4950783;29;19918;-90
2020/12/25 01:37:33;;;;;;;;;;;2.10;99.90;;;;;;4965003;28;19910;-88
2020/12/25 01:40:08;;;;;;;;;;;2.10;99.90;;;;;;4991982;28;19916;-88
2020/12/25 01:42:37;;;;;;;;;;;2.10;99.90;;;;;;4992929;28;19921;-88
2020/12/25 01:45:06;;;;;;;;;;;2.10;99.90;;;;;;4994225;28;19914;-89
2020/12/25 01:47:36;;;;;;;;;;;2.00;99.90;;;;;;5011178;28;19967;-88
2020/12/25 01:50:05;;;;;;;;;;;2.00;99.90;;;;;;5071821;28;20000;-89
2020/12/25 01:52:37;;;;;;;;;;;2.10;99.90;;;;;;5125701;27;19911;-88
2020/12/25 01:55:07;;;;;;;;;;;2.10;99.90;;;;;;5132572;27;20412;-88
2020/12/25 01:57:33;;;;;;;;;;;2.10;99.90;;;;;;5134821;27;19956;-88
2020/12/25 02:00:01;;;;;;;;;;;2.10;99.90;;;;;;5137887;27;20010;-88
2020/12/25 02:02:31;;;;;;;;;;;2.10;99.90;;;;;;5132265;27;20440;-89
2020/12/25 02:05:07;;;;;;;;;;;2.10;99.90;;;;;;5139196;27;19916;-88
2020/12/25 02:07:35;;;;;;;;;;;2.20;99.90;;;;;;5137723;27;19907;-88
2020/12/25 02:10:03;;;;;;;;;;;2.10;99.90;;;;;;5131520;27;20371;-89
2020/12/25 02:12:33;;;;;;;;;;;2.10;99.90;;;;;;5138071;27;19907;-88
2020/12/25 02:14:58;;;;;;;;;;;2.10;99.90;;;;;;5137934;27;20283;-88
2020/12/25 02:17:30;;;;;;;;;;;2.10;99.90;;;;;;5138127;27;19908;-88
2020/12/25 02:19:57;;;;;;;;;;;2.10;99.90;;;;;;5132316;27;19994;-89
2020/12/25 02:22:31;;;;;;;;;;;2.10;99.90;;;;;;5133031;27;19918;-87
2020/12/25 02:25:05;;;;;;;;;;;2.20;99.90;;;;;;5136570;27;20379;-88
2020/12/25 02:27:43;;;;;;;;;;;2.20;99.90;;;;;;5135167;27;20390;-88
2020/12/25 02:30:16;;;;;;;;;;;2.20;99.90;;;;;;5120539;27;19912;-88
2020/12/25 02:33:11;;;;;;;;;;;2.20;99.90;;;;;;5137536;27;19931;-88
2020/12/25 02:35:39;;;;;;;;;;;2.20;99.90;;;;;;5137504;27;19994;-88
2020/12/25 02:38:15;;;;;;;;;;;2.10;99.90;;;;;;5137432;27;20056;-88
2020/12/25 02:40:40;;;;;;;;;;;2.10;99.90;;;;;;5135127;27;19940;-88
2020/12/25 02:43:09;;;;;;;;;;;2.20;99.90;;;;;;5132576;27;19916;-88
2020/12/25 02:45:34;;;;;;;;;;;2.20;99.90;;;;;;5137248;27;19908;-88
2020/12/25 02:48:05;;;;;;;;;;;2.30;99.90;;;;;;5136931;27;19983;-88
2020/12/25 02:50:31;;;;;;;;;;;2.30;99.90;;;;;;5138268;27;19911;-88
2020/12/25 02:52:59;;;;;;;;;;;2.40;99.90;;;;;;5136743;27;19914;-88
2020/12/25 02:55:45;;;;;;;;;;;2.50;99.90;;;;;;5147928;27;19926;-88
2020/12/25 02:58:14;;;;;;;;;;;2.50;99.90;;;;;;5134562;27;20363;-88
2020/12/25 03:00:42;;;;;;;;;;;2.50;99.90;;;;;;5136456;27;20003;-87
2020/12/25 03:03:33;;;;;;;;;;;2.50;99.90;;;;;;5156667;27;20412;-87
2020/12/25 03:06:09;;;;;;;;;;;2.50;99.90;;;;;;5137907;27;19918;-87
2020/12/25 03:08:35;;;;;;;;;;;2.40;99.90;;;;;;5135329;27;20401;-87
2020/12/25 03:11:03;;;;;;;;;;;2.40;99.90;;;;;;5139977;27;19956;-88
2020/12/25 03:13:36;;;;;;;;;;;2.40;99.90;;;;;;5158304;27;19907;-89
2020/12/25 03:16:05;;;;;;;;;;;2.40;99.90;;;;;;5153391;27;19928;-88
2020/12/25 03:18:33;;;;;;;;;;;2.40;99.90;;;;;;5136953;27;19946;-88
2020/12/25 03:20:58;;;;;;;;;;;2.50;99.90;;;;;;5134089;27;20351;-88
2020/12/25 03:23:27;;;;;;;;;;;2.50;99.90;;;;;;5137066;27;19919;-88
2020/12/25 03:25:57;;;;;;;;;;;2.50;99.90;;;;;;5133459;27;20404;-88
2020/12/25 03:28:26;;;;;;;;;;;2.50;99.90;;;;;;5139537;27;19914;-87
2020/12/25 03:30:57;;;;;;;;;;;2.40;99.90;;;;;;5136717;27;19911;-87
2020/12/25 03:33:26;;;;;;;;;;;2.50;99.90;;;;;;5135123;27;20271;-88
2020/12/25 03:35:57;;;;;;;;;;;2.40;99.90;;;;;;5140553;27;19986;-87
2020/12/25 03:38:34;;;;;;;;;;;2.50;99.90;;;;;;5136575;27;19907;-87
2020/12/25 03:41:00;;;;;;;;;;;2.50;99.90;;;;;;5139411;27;20397;-87
2020/12/25 03:43:28;;;;;;;;;;;2.50;99.90;;;;;;5139898;27;19965;-87
2020/12/25 03:45:59;;;;;;;;;;;2.50;99.90;;;;;;5157418;27;20001;-88
2020/12/25 03:48:25;;;;;;;;;;;2.50;99.90;;;;;;5139221;27;20383;-87
2020/12/25 03:50:56;;;;;;;;;;;2.50;99.90;;;;;;5134567;27;19911;-87
2020/12/25 03:53:24;;;;;;;;;;;2.60;99.90;;;;;;5134065;27;20274;-88
2020/12/25 03:55:50;;;;;;;;;;;2.60;99.90;;;;;;5132590;27;20386;-87
2020/12/25 03:58:18;;;;;;;;;;;2.70;99.90;;;;;;5134617;27;19932;-87
2020/12/25 04:00:57;;;;;;;;;;;2.70;99.90;;;;;;5157827;27;19914;-88
2020/12/25 04:03:25;;;;;;;;;;;2.70;99.90;;;;;;5134896;27;19915;-87
2020/12/25 04:05:58;;;;;;;;;;;2.70;99.90;;;;;;5135017;27;19914;-87
2020/12/25 04:08:37;;;;;;;;;;;2.70;99.90;;;;;;5151061;27;19907;-88
2020/12/25 04:11:09;;;;;;;;;;;2.70;99.90;;;;;;5138445;27;19914;-87
2020/12/25 04:13:48;;;;;;;;;;;2.70;99.90;;;;;;5138978;27;19911;-87
2020/12/25 04:16:17;;;;;;;;;;;2.60;99.90;;;;;;5138992;27;19907;-88
2020/12/25 04:18:44;;;;;;;;;;;2.50;99.90;;;;;;5132261;27;19907;-88
2020/12/25 04:21:24;;;;;;;;;;;2.40;99.90;;;;;;5154440;27;19907;-87
2020/12/25 04:23:56;;;;;;;;;;;2.30;99.90;;;;;;5138975;27;19915;-87
2020/12/25 04:26:29;;;;;;;;;;;2.20;99.90;;;;;;5138716;27;19908;-87
2020/12/25 04:29:00;;;;;;;;;;;2.20;99.90;;;;;;5153989;27;19918;-87
2020/12/25 04:31:39;;;;;;;;;;;2.10;99.90;;;;;;5157097;27;20037;-88
2020/12/25 04:34:04;;;;;;;;;;;2.10;99.90;;;;;;5138576;27;20329;-87
2020/12/25 04:36:36;;;;;;;;;;;2.00;99.90;;;;;;5133496;27;19907;-87
2020/12/25 04:39:09;;;;;;;;;;;2.00;99.90;;;;;;5035925;28;19936;-87
2020/12/25 04:41:37;;;;;;;;;;;1.90;99.90;;;;;;5036085;28;19913;-87
2020/12/25 04:44:09;;;;;;;;;;;1.90;99.90;;;;;;5048832;28;19913;-87
2020/12/25 04:46:38;;;;;;;;;;;1.80;99.90;;;;;;5052787;28;19909;-88
2020/12/25 04:49:08;;;;;;;;;;;1.80;99.90;;;;;;5050406;28;19956;-87
2020/12/25 04:51:35;;;;;;;;;;;1.80;99.90;;;;;;5049314;28;20451;-88
2020/12/25 04:54:02;;;;;;;;;;;1.80;99.90;;;;;;5052313;28;19909;-87
2020/12/25 04:56:33;;;;;;;;;;;1.80;99.90;;;;;;5048453;28;20432;-87
2020/12/25 04:59:04;;;;;;;;;;;1.90;99.90;;;;;;5035870;28;19948;-88
2020/12/25 05:01:33;;;;;;;;;;;1.90;99.90;;;;;;5036151;28;19913;-87
2020/12/25 05:04:01;;;;;;;;;;;2.00;99.90;;;;;;5033825;28;19913;-89
2020/12/25 05:06:30;;;;;;;;;;;2.10;99.90;;;;;;5033544;28;19955;-88
2020/12/25 05:08:58;;;;;;;;;;;2.10;99.90;;;;;;5060146;27;19909;-88
2020/12/25 05:11:30;;;;;;;;;;;2.10;99.90;;;;;;5152913;27;19921;-88
2020/12/25 05:14:11;;;;;;;;;;;2.20;99.90;;;;;;5137992;27;19911;-87
2020/12/25 05:16:40;;;;;;;;;;;2.20;99.90;;;;;;5137947;27;19907;-88
2020/12/25 05:19:13;;;;;;;;;;;2.20;99.90;;;;;;5152400;27;19911;-89
2020/12/25 05:21:46;;;;;;;;;;;2.20;99.90;;;;;;5132321;27;19958;-89
2020/12/25 05:24:25;;;;;;;;;;;2.20;99.90;;;;;;5154142;27;19918;-88
2020/12/25 05:26:56;;;;;;;;;;;2.20;99.90;;;;;;5112711;28;20007;-88
2020/12/25 05:29:28;;;;;;;;;;;2.20;99.90;;;;;;5096013;28;19908;-88
2020/12/25 05:32:00;;;;;;;;;;;2.20;99.90;;;;;;5108635;28;19908;-87
2020/12/25 05:34:25;;;;;;;;;;;2.30;99.90;;;;;;5095121;28;20006;-88
2020/12/25 05:36:54;;;;;;;;;;;2.30;99.90;;;;;;5096001;28;20011;-88
2020/12/25 05:39:32;;;;;;;;;;;2.30;99.90;;;;;;5095841;28;19937;-88
2020/12/25 05:42:07;;;;;;;;;;;2.30;99.90;;;;;;5095789;28;19965;-88
2020/12/25 05:44:55;;;;;;;;;;;2.30;99.90;;;;;;5112662;28;19939;-88
2020/12/25 05:47:23;;;;;;;;;;;2.40;99.90;;;;;;5095871;28;19915;-88
2020/12/25 05:50:00;;;;;;;;;;;2.40;99.90;;;;;;5092845;28;19912;-88
2020/12/25 05:52:33;;;;;;;;;;;2.40;99.90;;;;;;5109020;28;19907;-88
2020/12/25 05:55:06;;;;;;;;;;;2.40;99.90;;;;;;5093085;28;19907;-88
2020/12/25 05:57:35;;;;;;;;;;;2.40;99.90;;;;;;5107800;27;19922;-88
2020/12/25 06:00:17;;;;;;;;;;;;;;;;;;;;;
2020/12/25 06:02:47;;;;;;;;;;;2.40;99.90;;;;;;5156597;27;19922;-87
2020/12/25 06:05:21;;;;;;;;;;;2.40;99.90;;;;;;5137618;27;19907;-88
2020/12/25 06:07:58;;;;;;;;;;;2.30;99.90;;;;;;5137585;27;19929;-88
2020/12/25 06:10:31;;;;;;;;;;;2.30;99.90;;;;;;5133100;27;19907;-88
2020/12/25 06:12:59;;;;;;;;;;;2.20;99.90;;;;;;5136671;27;19915;-88
2020/12/25 06:15:28;;;;;;;;;;;2.20;99.90;;;;;;5150095;27;20352;-87
2020/12/25 06:18:15;;;;;;;;;;;2.20;99.90;;;;;;5136939;27;20363;-88
2020/12/25 06:20:56;;;;;;;;;;;2.20;99.90;;;;;;5138045;27;19914;-88
2020/12/25 06:23:33;;;;;;;;;;;2.20;99.90;;;;;;5132895;27;19925;-88
2020/12/25 06:26:07;;;;;;;;;;;2.20;99.90;;;;;;5133113;27;19913;-87
2020/12/25 06:28:53;;;;;;;;;;;2.20;99.90;;;;;;5136975;27;19955;-88
2020/12/25 06:31:41;;;;;;;;;;;2.20;99.90;;;;;;5157041;27;20263;-87
2020/12/25 06:34:09;;;;;;;;;;;2.20;99.90;;;;;;5141159;27;19913;-87
2020/12/25 06:36:41;;;;;;;;;;;2.10;99.90;;;;;;5159163;27;19954;-87
2020/12/25 06:39:14;;;;;;;;;;;2.00;99.90;;;;;;5159003;27;19907;-87
2020/12/25 06:41:40;;;;;;;;;;;2.10;99.90;;;;;;5140289;27;19922;-88
2020/12/25 06:44:12;;;;;;;;;;;2.20;99.90;;;;;;5134458;27;20305;-87
2020/12/25 06:46:45;;;;;;;;;;;2.20;99.90;;;;;;5159173;27;19915;-88
2020/12/25 06:49:13;;;;;;;;;;;2.30;99.90;;;;;;5134152;27;20108;-89
2020/12/25 06:51:40;;;;;;;;;;;2.40;99.90;;;;;;5139868;27;20287;-88
2020/12/25 06:54:15;;;;;;;;;;;2.50;99.90;;;;;;5140838;27;19952;-87
2020/12/25 06:56:45;;;;;;;;;;;2.60;99.90;;;;;;5128023;27;19926;-88
2020/12/25 06:59:19;;;;;;;;;;;2.60;99.90;;;;;;5137086;27;19916;-88
2020/12/25 07:01:52;;;;;;;;;;;2.70;99.90;;;;;;5136490;27;20085;-88
2020/12/25 07:04:26;;;;;;;;;;;2.80;99.90;;;;;;5136281;27;19958;-87
2020/12/25 07:06:58;;;;;;;;;;;2.80;99.90;;;;;;5137955;27;19950;-88
2020/12/25 07:09:46;;;;;;;;;;;2.80;99.90;;;;;;5131294;27;19960;-87
2020/12/25 07:12:18;;;;;;;;;;;2.80;99.90;;;;;;5137446;27;19912;-87
2020/12/25 07:14:44;;;;;;;;;;;2.80;99.90;;;;;;5136034;27;19911;-87
2020/12/25 07:17:18;;;;;;;;;;;2.80;99.90;;;;;;5132099;27;19914;-88
2020/12/25 07:19:47;;;;;;;;;;;2.80;99.90;;;;;;5135966;27;19907;-87
2020/12/25 07:22:23;;;;;;;;;;;2.80;99.90;;;;;;5131327;27;19912;-87
2020/12/25 07:24:54;;;;;;;;;;;2.70;99.90;;;;;;5137763;27;19912;-88
2020/12/25 07:27:27;;;;;;;;;;;2.60;99.90;;;;;;5137837;27;20378;-87
2020/12/25 07:29:55;;;;;;;;;;;2.60;99.90;;;;;;5135930;27;19968;-87
2020/12/25 07:32:30;;;;;;;;;;;2.60;99.90;;;;;;5135968;27;20424;-87
2020/12/25 07:35:17;;;;;;;;;;;2.60;99.90;;;;;;5136330;27;19911;-87
2020/12/25 07:37:53;;;;;;;;;;;2.60;99.90;;;;;;5136849;27;19916;-87
2020/12/25 07:40:21;;;;;;;;;;;2.60;99.90;;;;;;5137217;27;20314;-87
2020/12/25 07:42:49;;;;;;;;;;;2.60;99.90;;;;;;5134996;27;19916;-87
2020/12/25 07:45:33;;;;;;;;;;;2.60;99.90;;;;;;5131867;27;20011;-87
2020/12/25 07:48:05;;;;;;;;;;;2.50;99.90;;;;;;5131957;27;19907;-87
2020/12/25 07:50:44;;;;;;;;;;;2.50;99.90;;;;;;5135950;27;19908;-87
2020/12/25 07:53:18;;;;;;;;;;;2.40;99.90;;;;;;5135553;27;19914;-88
2020/12/25 07:55:47;;;;;;;;;;;2.30;99.90;;;;;;5138659;27;19926;-88
2020/12/25 07:58:19;;;;;;;;;;;2.30;99.90;;;;;;5154818;27;19912;-87
2020/12/25 08:00:45;;;;;;;;;;;2.20;99.90;;;;;;5139153;27;19962;-88
2020/12/25 08:03:13;;;;;;;;;;;2.20;99.90;;;;;;5139142;27;19922;-88
2020/12/25 08:05:41;;;;;;;;;;;2.10;99.90;;;;;;5157299;27;19952;-87
2020/12/25 08:08:30;;;;;;;;;;;2.10;99.90;;;;;;5156135;27;19932;-88
2020/12/25 08:11:16;;;;;;;;;;;2.10;99.90;;;;;;5155491;27;20002;-87
2020/12/25 08:13:50;;;;;;;;;;;2.10;99.90;;;;;;5133290;27;19956;-88
2020/12/25 08:16:24;;;;;;;;;;;2.10;99.90;;;;;;5135909;27;19913;-88
2020/12/25 08:18:58;;;;;;;;;;;2.10;99.90;;;;;;5155589;27;19911;-87
2020/12/25 08:21:37;;;;;;;;;;;2.10;99.90;;;;;;5138235;27;19914;-88
2020/12/25 08:24:13;;;;;;;;;;;2.10;99.90;;;;;;5138882;27;19915;-87
2020/12/25 08:26:49;;;;;;;;;;;2.20;99.90;;;;;;5134263;27;19907;-88
2020/12/25 08:29:17;;;;;;;;;;;2.20;99.90;;;;;;5134098;27;19911;-87
2020/12/25 08:31:43;;;;;;;;;;;2.20;99.90;;;;;;5138264;27;20489;-88
2020/12/25 08:34:21;;;;;;;;;;;2.20;99.90;;;;;;5147082;27;19988;-88
2020/12/25 08:37:03;;;;;;;;;;;2.30;99.90;;;;;;5120596;27;19911;-88
2020/12/25 08:39:31;;;;;;;;;;;2.30;99.90;;;;;;5143990;27;19912;-87
2020/12/25 08:42:09;;;;;;;;;;;2.50;99.90;;;;;;5141517;27;20279;-88
2020/12/25 08:44:38;;;;;;;;;;;2.60;99.90;;;;;;5125511;27;19914;-89
2020/12/25 08:47:10;;;;;;;;;;;2.70;99.90;;;;;;5124919;27;19994;-88
2020/12/25 08:49:39;;;;;;;;;;;2.70;99.90;;;;;;5128879;27;20381;-88
2020/12/25 08:52:23;;;;;;;;;;;2.80;99.90;;;;;;5121226;27;20393;-88
2020/12/25 08:55:01;;;;;;;;;;;2.80;99.90;;;;;;5141739;27;19920;-89
2020/12/25 08:57:30;;;;;;;;;;;2.90;99.90;;;;;;5120297;27;19919;-88
2020/12/25 09:00:15;;;;;;;;;;;2.90;99.90;;;;;;5143134;27;19915;-89
2020/12/25 09:02:57;;;;;;;;;;;2.90;99.90;;;;;;5122819;27;19979;-88
2020/12/25 09:05:26;;;;;;;;;;;3.00;99.90;;;;;;5129953;27;19919;-88
2020/12/25 09:07:54;;;;;;;;;;;3.00;99.90;;;;;;5128687;27;19971;-88
2020/12/25 09:10:26;;;;;;;;;;;3.00;99.90;;;;;;5128667;27;19907;-88
2020/12/25 09:12:52;;;;;;;;;;;3.00;99.90;;;;;;5129340;27;19954;-88
2020/12/25 09:15:25;;;;;;;;;;;3.10;99.90;;;;;;5132054;27;19918;-88
2020/12/25 09:17:58;;;;;;;;;;;3.30;99.90;;;;;;5132008;27;19919;-88
2020/12/25 09:20:34;;;;;;;;;;;3.50;99.90;;;;;;5119957;27;19954;-88
2020/12/25 09:23:02;;;;;;;;;;;3.70;99.90;;;;;;5124307;27;19915;-88
2020/12/25 09:25:33;;;;;;;;;;;3.80;99.90;;;;;;5124978;28;19918;-87
2020/12/25 09:28:24;;;;;;;;;;;3.80;99.90;;;;;;5122046;27;19961;-87
2020/12/25 09:30:53;;;;;;;;;;;3.80;99.90;;;;;;5127263;27;20381;-86
2020/12/25 09:33:22;;;;;;;;;;;3.90;99.90;;;;;;5128000;27;19907;-87
2020/12/25 09:35:47;;;;;;;;;;;4.00;99.90;;;;;;5135532;27;20009;-87
2020/12/25 09:38:18;;;;;;;;;;;4.00;99.90;;;;;;5134115;27;20014;-85
2020/12/25 09:40:46;;;;;;;;;;;4.00;99.90;;;;;;5094665;28;19912;-87
2020/12/25 09:43:17;;;;;;;;;;;4.00;99.90;;;;;;5075044;28;19916;-87
2020/12/25 09:45:45;;;;;;;;;;;4.10;99.90;;;;;;5089762;28;19908;-87
2020/12/25 09:48:33;;;;;;;;;;;4.10;99.90;;;;;;5089351;28;19961;-88
2020/12/25 09:51:05;;;;;;;;;;;4.20;99.90;;;;;;5073796;28;19963;-87
2020/12/25 09:53:42;;;;;;;;;;;4.30;99.90;;;;;;5072450;28;19931;-87
2020/12/25 09:56:14;;;;;;;;;;;4.60;99.90;;;;;;5080127;28;20067;-87
2020/12/25 09:59:01;;;;;;;;;;;4.80;99.90;;;;;;5077566;28;19995;-87
2020/12/25 10:01:39;;;;;;;;;;;4.90;99.90;;;;;;5068200;28;20311;-87
2020/12/25 10:04:05;;;;;;;;;;;4.90;99.90;;;;;;5054541;28;19924;-86
2020/12/25 10:06:39;;;;;;;;;;;4.70;99.90;;;;;;5057201;28;19917;-88
2020/12/25 10:09:08;;;;;;;;;;;4.70;99.90;;;;;;5058767;28;19908;-88
2020/12/25 10:11:33;;;;;;;;;;;4.70;99.90;;;;;;5055548;28;20389;-87
2020/12/25 10:14:05;;;;;;;;;;;4.80;99.90;;;;;;5055149;28;19915;-88
2020/12/25 10:16:33;;;;;;;;;;;5.30;99.90;;;;;;5062704;28;19908;-87
2020/12/25 10:19:07;;;;;;;;;;;5.80;99.90;;;;;;5071907;28;19908;-87
2020/12/25 10:21:36;;;;;;;;;;;6.30;99.90;;;;;;5074473;28;19918;-87
2020/12/25 10:24:08;;;;;;;;;;;6.40;99.90;;;;;;5075942;28;20285;-87
2020/12/25 10:26:38;;;;;;;;;;;6.30;99.90;;;;;;5074932;28;20112;-87
2020/12/25 10:29:09;;;;;;;;;;;6.10;99.90;;;;;;5058093;28;20289;-87
2020/12/25 10:31:35;;;;;;;;;;;6.00;99.90;;;;;;5104596;28;20006;-87
2020/12/25 10:34:19;;;;;;;;;;;5.90;99.90;;;;;;5116192;28;20444;-87
2020/12/25 10:37:01;;;;;;;;;;;5.80;99.90;;;;;;5125902;27;19915;-87
2020/12/25 10:39:30;;;;;;;;;;;5.70;99.90;;;;;;5112291;27;20325;-87
2020/12/25 10:41:55;;;;;;;;;;;5.80;99.90;;;;;;5109116;27;19911;-87
2020/12/25 10:44:25;;;;;;;;;;;5.90;99.90;;;;;;5106330;27;19923;-86
2020/12/25 10:46:57;;;;;;;;;;;5.90;99.90;;;;;;5108536;27;19908;-86
2020/12/25 10:49:25;;;;;;;;;;;5.90;99.90;;;;;;5102548;28;19998;-87
2020/12/25 10:51:54;;;;;;;;;;;5.80;99.90;;;;;;5121310;27;19912;-87
2020/12/25 10:54:22;;;;;;;;;;;5.60;99.90;;;;;;5106704;28;20387;-87
2020/12/25 10:56:59;;;;;;;;;;;5.40;99.90;;;;;;5106475;27;20326;-86
2020/12/25 10:59:31;;;;;;;;;;;5.30;99.90;;;;;;5122513;27;19908;-87
2020/12/25 11:02:00;;;;;;;;;;;5.20;99.90;;;;;;5123685;27;19916;-87
2020/12/25 11:04:25;;;;;;;;;;;5.20;99.90;;;;;;5112155;28;19911;-87
2020/12/25 11:06:54;;;;;;;;;;;5.20;99.90;;;;;;5111570;28;19912;-87
2020/12/25 11:09:25;;;;;;;;;;;5.40;99.90;;;;;;5114826;28;19915;-87
2020/12/25 11:11:59;;;;;;;;;;;6.10;99.90;;;;;;5113251;28;20010;-87
2020/12/25 11:14:34;;;;;;;;;;;7.30;99.90;;;;;;5116093;27;19908;-87
2020/12/25 11:17:05;;;;;;;;;;;8.40;99.90;;;;;;5136015;27;19915;-88
2020/12/25 11:19:51;;;;;;;;;;;9.40;95.10;;;;;;5135894;27;20002;-87
2020/12/25 11:22:21;;;;;;;;;;;10.20;88.60;;;;;;5133064;27;19928;-88
2020/12/25 11:24:53;;;;;;;;;;;10.80;82.60;;;;;;5115304;28;19962;-87
2020/12/25 11:27:21;;;;;;;;;;;11.20;81.00;;;;;;5115206;28;19930;-88
2020/12/25 11:29:54;;;;;;;;;;;11.60;77.30;;;;;;5114640;28;19912;-88
2020/12/25 11:32:26;;;;;;;;;;;12.00;76.10;;;;;;5113880;28;19908;-88
2020/12/25 11:34:54;;;;;;;;;;;12.50;75.40;;;;;;5056765;28;20005;-88
2020/12/25 11:37:25;;;;;;;;;;;12.80;72.30;;;;;;5057362;28;20353;-87
2020/12/25 11:39:57;;;;;;;;;;;12.90;71.50;;;;;;5052360;28;19912;-88
2020/12/25 11:42:42;;;;;;;;;;;13.20;68.10;;;;;;5070775;28;20007;-88
2020/12/25 11:45:14;;;;;;;;;;;13.20;66.10;;;;;;5073412;28;20297;-88
2020/12/25 11:47:43;;;;;;;;;;;13.20;66.30;;;;;;5053843;28;19945;-87
2020/12/25 11:50:11;;;;;;;;;;;13.40;66.60;;;;;;5052124;28;19946;-89
2020/12/25 11:53:04;;;;;;;;;;;13.80;65.20;;;;;;5072166;28;19913;-87
2020/12/25 11:55:39;;;;;;;;;;;13.90;63.80;;;;;;5071229;28;20091;-89
2020/12/25 11:58:10;;;;;;;;;;;13.40;64.30;;;;;;5053769;28;19920;-88
2020/12/25 12:00:39;;;;;;;;;;;13.20;64.00;;;;;;5082933;28;20269;-87
2020/12/25 12:03:05;;;;;;;;;;;13.10;64.50;;;;;;5070922;28;19946;-88
2020/12/25 12:06:00;;;;;;;;;;;13.30;64.60;;;;;;5093341;28;19908;-87
2020/12/25 12:08:32;;;;;;;;;;;13.70;65.50;;;;;;5068324;28;19962;-88
2020/12/25 12:10:57;;;;;;;;;;;14.00;63.70;;;;;;5088610;28;19944;-88
2020/12/25 12:13:23;;;;;;;;;;;13.90;63.30;;;;;;5047248;28;19944;-88
2020/12/25 12:15:50;;;;;;;;;;;13.90;62.60;;;;;;5035862;28;20362;-88
2020/12/25 12:18:18;;;;;;;;;;;14.00;63.10;;;;;;5063151;28;19919;-88
2020/12/25 12:20:49;;;;;;;;;;;14.10;63.70;;;;;;5075915;28;20426;-88
2020/12/25 12:23:17;;;;;;;;;;;13.90;63.20;;;;;;5076036;28;19917;-88
2020/12/25 12:25:46;;;;;;;;;;;13.90;64.00;;;;;;5076321;28;19911;-88
2020/12/25 12:28:11;;;;;;;;;;;13.90;64.10;;;;;;5069117;28;19920;-89
2020/12/25 12:30:39;;;;;;;;;;;13.90;64.30;;;;;;5052586;28;19913;-88
2020/12/25 12:33:13;;;;;;;;;;;13.90;63.00;;;;;;5052620;28;19909;-88
2020/12/25 12:35:42;;;;;;;;;;;13.50;63.80;;;;;;5050431;28;19939;-87
2020/12/25 12:38:29;;;;;;;;;;;13.40;65.40;;;;;;5049924;28;19912;-88
2020/12/25 12:41:02;;;;;;;;;;;13.20;64.60;;;;;;5051846;28;20022;-88
2020/12/25 12:43:30;;;;;;;;;;;13.40;65.80;;;;;;5055084;28;19923;-88
2020/12/25 12:46:01;;;;;;;;;;;13.70;64.10;;;;;;5071564;28;19916;-88
2020/12/25 12:48:27;;;;;;;;;;;13.90;62.70;;;;;;5072530;28;19908;-87
2020/12/25 12:50:57;;;;;;;;;;;13.70;62.80;;;;;;5071492;28;20380;-89
2020/12/25 12:53:29;;;;;;;;;;;14.00;63.70;;;;;;5075260;28;19923;-88
2020/12/25 12:55:57;;;;;;;;;;;14.10;60.90;;;;;;5075515;28;19908;-88
2020/12/25 12:58:25;;;;;;;;;;;14.10;60.90;;;;;;5075238;28;19920;-87
2020/12/25 13:00:54;;;;;;;;;;;13.60;61.00;;;;;;5079343;27;19914;-88
2020/12/25 13:03:32;;;;;;;;;;;12.90;62.90;;;;;;5117265;27;20402;-87
2020/12/25 13:05:58;;;;;;;;;;;12.40;64.30;;;;;;5116666;27;19915;-88
2020/12/25 13:08:24;;;;;;;;;;;11.80;66.60;;;;;;5117534;27;19914;-87
2020/12/25 13:10:49;;;;;;;;;;;11.30;68.80;;;;;;5132073;27;20424;-87
2020/12/25 13:13:24;;;;;;;;;;;11.10;68.30;;;;;;5116935;27;20355;-88
2020/12/25 13:15:51;;;;;;;;;;;11.00;67.90;;;;;;5117155;28;19907;-87
2020/12/25 13:18:19;;;;;;;;;;;10.70;69.60;;;;;;5135132;27;19907;-89
2020/12/25 13:20:48;;;;;;;;;;;10.60;70.10;;;;;;5116932;27;19911;-88
2020/12/25 13:23:21;;;;;;;;;;;10.50;70.00;;;;;;5113955;28;19926;-88
2020/12/25 13:26:14;;;;;;;;;;;10.20;71.90;;;;;;5092304;28;19957;-86
2020/12/25 13:28:39;;;;;;;;;;;10.20;71.00;;;;;;5075054;28;20064;-87
2020/12/25 13:31:25;;;;;;;;;;;9.80;71.30;;;;;;5087211;28;20456;-87
2020/12/25 13:33:59;;;;;;;;;;;9.40;73.50;;;;;;5092138;28;19908;-88
2020/12/25 13:36:28;;;;;;;;;;;9.40;74.80;;;;;;5092834;28;19908;-87
2020/12/25 13:38:53;;;;;;;;;;;9.00;74.90;;;;;;5087914;28;20010;-88
2020/12/25 13:41:21;;;;;;;;;;;8.50;76.50;;;;;;5094512;28;20368;-87
2020/12/25 13:43:53;;;;;;;;;;;8.00;78.20;;;;;;5096127;28;20392;-87
2020/12/25 13:46:20;;;;;;;;;;;7.50;80.00;;;;;;5096487;28;19908;-87
2020/12/25 13:48:51;;;;;;;;;;;7.20;82.10;;;;;;5091935;28;19908;-87
2020/12/25 13:51:22;;;;;;;;;;;7.00;84.30;;;;;;5092386;28;19908;-87
2020/12/25 13:53:49;;;;;;;;;;;6.80;86.00;;;;;;5096143;28;19999;-88
2020/12/25 13:56:20;;;;;;;;;;;6.80;88.00;;;;;;5108302;27;19968;-87
2020/12/25 13:58:48;;;;;;;;;;;6.70;89.30;;;;;;5118532;27;19919;-88
2020/12/25 14:01:18;;;;;;;;;;;6.50;90.10;;;;;;5139285;27;20359;-87
2020/12/25 14:04:00;;;;;;;;;;;6.30;90.90;;;;;;5137424;27;19915;-87
2020/12/25 14:06:28;;;;;;;;;;;6.20;91.90;;;;;;5115960;27;19993;-88
2020/12/25 14:08:57;;;;;;;;;;;6.00;92.70;;;;;;5121093;27;20244;-87
2020/12/25 14:11:23;;;;;;;;;;;5.90;93.70;;;;;;5139466;27;19915;-87
2020/12/25 14:13:51;;;;;;;;;;;5.80;95.10;;;;;;5120126;27;19907;-89
2020/12/25 14:16:19;;;;;;;;;;;5.60;96.10;;;;;;5120194;27;19908;-86
2020/12/25 14:18:49;;;;;;;;;;;5.60;97.40;;;;;;5120604;27;19911;-87
2020/12/25 14:21:15;;;;;;;;;;;5.50;98.00;;;;;;5136346;27;19911;-87
2020/12/25 14:23:44;;;;;;;;;;;5.40;99.60;;;;;;5120606;27;20041;-87
2020/12/25 14:26:11;;;;;;;;;;;5.40;99.90;;;;;;5120673;27;20387;-87
2020/12/25 14:28:41;;;;;;;;;;;5.30;99.90;;;;;;5120352;27;19960;-87
2020/12/25 14:31:06;;;;;;;;;;;5.30;99.90;;;;;;5116499;27;19907;-86
2020/12/25 14:33:34;;;;;;;;;;;5.30;99.90;;;;;;5138350;27;19915;-87
2020/12/25 14:36:08;;;;;;;;;;;5.30;99.90;;;;;;5114740;27;20005;-88
2020/12/25 14:38:36;;;;;;;;;;;5.20;99.90;;;;;;5115720;27;19995;-87
2020/12/25 14:41:09;;;;;;;;;;;5.20;99.90;;;;;;5116237;27;19916;-87
2020/12/25 14:43:35;;;;;;;;;;;5.10;99.90;;;;;;5119759;27;19937;-88
2020/12/25 14:46:03;;;;;;;;;;;5.00;99.90;;;;;;5114599;27;19911;-87
2020/12/25 14:48:51;;;;;;;;;;;4.90;99.90;;;;;;5136472;27;19908;-87
2020/12/25 14:51:23;;;;;;;;;;;4.90;99.90;;;;;;5115907;27;19946;-87
2020/12/25 14:53:54;;;;;;;;;;;4.80;99.90;;;;;;5116095;27;19914;-87
2020/12/25 14:56:31;;;;;;;;;;;4.80;99.90;;;;;;5136057;27;20360;-87